createdAt,value
2023-04-12T00:00:02.611Z,944.36
2023-04-12T00:00:13.603Z,944.36
2023-04-12T00:00:25.604Z,944.35
2023-04-12T00:00:36.597Z,944.35
2023-04-12T00:00:47.595Z,944.34
2023-04-12T00:00:58.602Z,944.34
2023-04-12T00:01:09.599Z,944.34
2023-04-12T00:01:20.585Z,944.33
2023-04-12T00:01:31.591Z,944.33
2023-04-12T00:01:42.619Z,944.32
2023-04-12T00:01:53.638Z,944.32
2023-04-12T00:02:04.619Z,944.31
2023-04-12T00:02:15.645Z,944.30
2023-04-12T00:02:26.800Z,944.30
2023-04-12T00:02:38.760Z,944.30
2023-04-12T00:02:50.664Z,944.31
2023-04-12T00:03:02.621Z,944.31
2023-04-12T00:03:13.598Z,944.31
2023-04-12T00:03:24.702Z,944.32
2023-04-12T00:03:36.801Z,944.32
2023-04-12T00:03:48.808Z,944.33
2023-04-12T00:04:01.042Z,944.34
2023-04-12T00:04:12.839Z,944.34
2023-04-12T00:04:24.777Z,944.35
2023-04-12T00:04:36.774Z,944.35
2023-04-12T00:04:48.794Z,944.35
2023-04-12T00:04:59.610Z,944.36
2023-04-12T00:05:10.649Z,944.36
2023-04-12T00:05:22.672Z,944.36
2023-04-12T00:05:33.597Z,944.36
2023-04-12T00:05:44.601Z,944.36
2023-04-12T00:05:55.567Z,944.36
2023-04-12T00:06:06.587Z,944.36
2023-04-12T00:06:17.586Z,944.36
2023-04-12T00:06:28.584Z,944.37
2023-04-12T00:06:40.585Z,944.36
2023-04-12T00:06:51.584Z,944.36
2023-04-12T00:07:02.587Z,944.36
2023-04-12T00:07:13.589Z,944.36
2023-04-12T00:07:24.589Z,944.36
2023-04-12T00:07:35.604Z,944.36
2023-04-12T00:07:46.582Z,944.36
2023-04-12T00:07:57.611Z,944.36
2023-04-12T00:08:08.576Z,944.36
2023-04-12T00:08:19.586Z,944.36
2023-04-12T00:08:31.617Z,944.35
2023-04-12T00:08:43.587Z,944.35
2023-04-12T00:08:54.581Z,944.36
2023-04-12T00:09:05.616Z,944.36
2023-04-12T00:09:17.596Z,944.36
2023-04-12T00:09:28.586Z,944.36
2023-04-12T00:09:39.616Z,944.36
2023-04-12T00:09:51.627Z,944.36
2023-04-12T00:10:03.577Z,944.36
2023-04-12T00:10:14.565Z,944.36
2023-04-12T00:10:25.581Z,944.35
2023-04-12T00:10:36.586Z,944.35
2023-04-12T00:10:47.599Z,944.35
2023-04-12T00:10:58.591Z,944.35
2023-04-12T00:11:09.590Z,944.35
2023-04-12T00:11:20.587Z,944.34
2023-04-12T00:11:31.612Z,944.34
2023-04-12T00:11:42.611Z,944.34
2023-04-12T00:11:54.584Z,944.33
2023-04-12T00:12:05.606Z,944.33
2023-04-12T00:12:16.584Z,944.33
2023-04-12T00:12:27.576Z,944.33
2023-04-12T00:12:39.584Z,944.32
2023-04-12T00:12:50.576Z,944.32
2023-04-12T00:13:01.582Z,944.32
2023-04-12T00:13:12.581Z,944.31
2023-04-12T00:13:23.574Z,944.31
2023-04-12T00:13:34.577Z,944.30
2023-04-12T00:13:45.593Z,944.31
2023-04-12T00:13:56.700Z,944.30
2023-04-12T00:14:08.590Z,944.30
2023-04-12T00:14:19.577Z,944.30
2023-04-12T00:14:30.580Z,944.29
2023-04-12T00:14:41.586Z,944.29
2023-04-12T00:14:52.592Z,944.29
2023-04-12T00:15:04.134Z,944.29
2023-04-12T00:15:14.653Z,944.29
2023-04-12T00:15:26.612Z,944.28
2023-04-12T00:15:38.616Z,944.28
2023-04-12T00:15:50.658Z,944.28
2023-04-12T00:16:01.674Z,944.28
2023-04-12T00:16:12.626Z,944.28
2023-04-12T00:16:23.619Z,944.28
2023-04-12T00:16:34.639Z,944.28
2023-04-12T00:16:46.599Z,944.27
2023-04-12T00:16:57.639Z,944.27
2023-04-12T00:17:09.605Z,944.27
2023-04-12T00:17:20.712Z,944.27
2023-04-12T00:17:32.669Z,944.27
2023-04-12T00:17:43.598Z,944.26
2023-04-12T00:17:55.603Z,944.26
2023-04-12T00:18:07.588Z,944.27
2023-04-12T00:18:18.608Z,944.27
2023-04-12T00:18:30.580Z,944.26
2023-04-12T00:18:41.604Z,944.26
2023-04-12T00:18:52.597Z,944.26
2023-04-12T00:19:03.614Z,944.26
2023-04-12T00:19:14.600Z,944.26
2023-04-12T00:19:25.590Z,944.26
2023-04-12T00:19:36.653Z,944.25
2023-04-12T00:19:48.617Z,944.25
2023-04-12T00:20:00.604Z,944.24
2023-04-12T00:20:12.778Z,944.23
2023-04-12T00:20:24.602Z,944.23
2023-04-12T00:20:35.591Z,944.23
2023-04-12T00:20:46.576Z,944.23
2023-04-12T00:20:57.619Z,944.22
2023-04-12T00:21:08.602Z,944.22
2023-04-12T00:21:19.641Z,944.21
2023-04-12T00:21:30.665Z,944.20
2023-04-12T00:21:42.631Z,944.20
2023-04-12T00:21:54.609Z,944.19
2023-04-12T00:22:05.610Z,944.19
2023-04-12T00:22:16.634Z,944.18
2023-04-12T00:22:28.609Z,944.17
2023-04-12T00:22:39.617Z,944.16
2023-04-12T00:22:50.607Z,944.16
2023-04-12T00:23:01.619Z,944.16
2023-04-12T00:23:12.620Z,944.15
2023-04-12T00:23:23.614Z,944.14
2023-04-12T00:23:34.643Z,944.14
2023-04-12T00:23:45.574Z,944.13
2023-04-12T00:23:57.697Z,944.12
2023-04-12T00:24:08.571Z,944.12
2023-04-12T00:24:19.555Z,944.12
2023-04-12T00:24:30.604Z,944.11
2023-04-12T00:24:41.597Z,944.11
2023-04-12T00:24:52.590Z,944.10
2023-04-12T00:25:03.584Z,944.10
2023-04-12T00:25:14.584Z,944.09
2023-04-12T00:25:26.624Z,944.09
2023-04-12T00:25:38.602Z,944.09
2023-04-12T00:25:49.618Z,944.08
2023-04-12T00:26:01.614Z,944.08
2023-04-12T00:26:12.609Z,944.07
2023-04-12T00:26:23.598Z,944.07
2023-04-12T00:26:34.600Z,944.07
2023-04-12T00:26:45.606Z,944.06
2023-04-12T00:26:56.596Z,944.05
2023-04-12T00:27:07.596Z,944.05
2023-04-12T00:27:18.593Z,944.05
2023-04-12T00:27:30.629Z,944.04
2023-04-12T00:27:42.589Z,944.04
2023-04-12T00:27:53.623Z,944.04
2023-04-12T00:28:05.578Z,944.04
2023-04-12T00:28:16.573Z,944.04
2023-04-12T00:28:27.586Z,944.04
2023-04-12T00:28:38.597Z,944.04
2023-04-12T00:28:49.584Z,944.03
2023-04-12T00:29:00.604Z,944.02
2023-04-12T00:29:11.595Z,944.02
2023-04-12T00:29:22.606Z,944.02
2023-04-12T00:29:33.614Z,944.01
2023-04-12T00:29:45.581Z,944.01
2023-04-12T00:29:56.596Z,944.01
2023-04-12T00:30:07.619Z,944.00
2023-04-12T00:30:19.595Z,943.99
2023-04-12T00:30:30.652Z,943.99
2023-04-12T00:30:42.605Z,943.99
2023-04-12T00:30:53.630Z,943.98
2023-04-12T00:31:05.639Z,943.97
2023-04-12T00:31:16.650Z,943.97
2023-04-12T00:31:27.630Z,943.96
2023-04-12T00:31:39.645Z,943.96
2023-04-12T00:31:50.593Z,943.95
2023-04-12T00:32:01.602Z,943.94
2023-04-12T00:32:12.591Z,943.94
2023-04-12T00:32:23.601Z,943.93
2023-04-12T00:32:34.618Z,943.92
2023-04-12T00:32:45.655Z,943.92
2023-04-12T00:32:57.679Z,943.91
2023-04-12T00:33:09.593Z,943.90
2023-04-12T00:33:20.614Z,943.90
2023-04-12T00:33:32.584Z,943.89
2023-04-12T00:33:43.580Z,943.89
2023-04-12T00:33:55.000Z,943.88
2023-04-12T00:34:05.585Z,943.88
2023-04-12T00:34:16.610Z,943.87
2023-04-12T00:34:27.615Z,943.87
2023-04-12T00:34:39.594Z,943.86
2023-04-12T00:34:50.586Z,943.85
2023-04-12T00:35:01.576Z,943.84
2023-04-12T00:35:12.599Z,943.84
2023-04-12T00:35:23.595Z,943.83
2023-04-12T00:35:35.631Z,943.83
2023-04-12T00:35:46.685Z,943.82
2023-04-12T00:35:57.676Z,943.82
2023-04-12T00:36:09.650Z,943.81
2023-04-12T00:36:21.622Z,943.80
2023-04-12T00:36:33.578Z,943.80
2023-04-12T00:36:44.592Z,943.79
2023-04-12T00:36:55.595Z,943.78
2023-04-12T00:37:06.618Z,943.78
2023-04-12T00:37:18.585Z,943.78
2023-04-12T00:37:29.572Z,943.78
2023-04-12T00:37:40.553Z,943.77
2023-04-12T00:37:51.596Z,943.77
2023-04-12T00:38:02.589Z,943.77
2023-04-12T00:38:13.582Z,943.76
2023-04-12T00:38:24.599Z,943.76
2023-04-12T00:38:35.589Z,943.75
2023-04-12T00:38:46.601Z,943.75
2023-04-12T00:38:57.618Z,943.74
2023-04-12T00:39:09.576Z,943.74
2023-04-12T00:39:20.566Z,943.74
2023-04-12T00:39:31.564Z,943.74
2023-04-12T00:39:42.546Z,943.74
2023-04-12T00:39:53.581Z,943.74
2023-04-12T00:40:04.566Z,943.74
2023-04-12T00:40:15.593Z,943.73
2023-04-12T00:40:26.592Z,943.73
2023-04-12T00:40:38.582Z,943.73
2023-04-12T00:40:49.582Z,943.73
2023-04-12T00:41:00.617Z,943.73
2023-04-12T00:41:11.579Z,943.73
2023-04-12T00:41:22.580Z,943.72
2023-04-12T00:41:33.581Z,943.71
2023-04-12T00:41:44.602Z,943.71
2023-04-12T00:41:55.603Z,943.70
2023-04-12T00:42:06.596Z,943.70
2023-04-12T00:42:17.595Z,943.69
2023-04-12T00:42:28.595Z,943.69
2023-04-12T00:42:39.589Z,943.68
2023-04-12T00:42:50.584Z,943.68
2023-04-12T00:43:01.592Z,943.67
2023-04-12T00:43:12.595Z,943.67
2023-04-12T00:43:23.606Z,943.67
2023-04-12T00:43:34.621Z,943.67
2023-04-12T00:43:46.600Z,943.66
2023-04-12T00:43:57.721Z,943.66
2023-04-12T00:44:08.594Z,943.66
2023-04-12T00:44:19.610Z,943.66
2023-04-12T00:44:31.600Z,943.66
2023-04-12T00:44:42.609Z,943.65
2023-04-12T00:44:53.634Z,943.65
2023-04-12T00:45:05.598Z,943.65
2023-04-12T00:45:16.612Z,943.65
2023-04-12T00:45:27.593Z,943.65
2023-04-12T00:45:38.589Z,943.65
2023-04-12T00:45:49.599Z,943.65
2023-04-12T00:46:01.597Z,943.65
2023-04-12T00:46:13.623Z,943.65
2023-04-12T00:46:24.568Z,943.65
2023-04-12T00:46:35.607Z,943.65
2023-04-12T00:46:46.722Z,943.65
2023-04-12T00:46:58.620Z,943.65
2023-04-12T00:47:10.627Z,943.65
2023-04-12T00:47:22.629Z,943.65
2023-04-12T00:47:33.590Z,943.65
2023-04-12T00:47:44.598Z,943.65
2023-04-12T00:47:55.661Z,943.65
2023-04-12T00:48:07.594Z,943.65
2023-04-12T00:48:19.573Z,943.64
2023-04-12T00:48:30.561Z,943.65
2023-04-12T00:48:41.595Z,943.65
2023-04-12T00:48:52.583Z,943.65
2023-04-12T00:49:03.607Z,943.65
2023-04-12T00:49:14.556Z,943.65
2023-04-12T00:49:25.566Z,943.65
2023-04-12T00:49:36.583Z,943.64
2023-04-12T00:49:47.582Z,943.64
2023-04-12T00:49:58.586Z,943.64
2023-04-12T00:50:09.601Z,943.64
2023-04-12T00:50:20.612Z,943.64
2023-04-12T00:50:31.599Z,943.63
2023-04-12T00:50:42.598Z,943.63
2023-04-12T00:50:53.593Z,943.63
2023-04-12T00:51:05.596Z,943.63
2023-04-12T00:51:16.598Z,943.63
2023-04-12T00:51:27.597Z,943.62
2023-04-12T00:51:39.583Z,943.62
2023-04-12T00:51:50.575Z,943.62
2023-04-12T00:52:01.598Z,943.62
2023-04-12T00:52:12.600Z,943.62
2023-04-12T00:52:23.598Z,943.62
2023-04-12T00:52:34.592Z,943.62
2023-04-12T00:52:45.585Z,943.62
2023-04-12T00:52:56.577Z,943.62
2023-04-12T00:53:07.584Z,943.62
2023-04-12T00:53:18.601Z,943.62
2023-04-12T00:53:29.610Z,943.62
2023-04-12T00:53:41.589Z,943.62
2023-04-12T00:53:52.588Z,943.61
2023-04-12T00:54:03.593Z,943.60
2023-04-12T00:54:15.596Z,943.61
2023-04-12T00:54:27.590Z,943.60
2023-04-12T00:54:38.618Z,943.60
2023-04-12T00:54:50.574Z,943.59
2023-04-12T00:55:01.565Z,943.59
2023-04-12T00:55:12.551Z,943.58
2023-04-12T00:55:23.553Z,943.57
2023-04-12T00:55:34.557Z,943.57
2023-04-12T00:55:45.560Z,943.57
2023-04-12T00:55:56.558Z,943.56
2023-04-12T00:56:07.552Z,943.55
2023-04-12T00:56:18.552Z,943.55
2023-04-12T00:56:29.555Z,943.55
2023-04-12T00:56:40.570Z,943.54
2023-04-12T00:56:51.551Z,943.53
2023-04-12T00:57:02.550Z,943.53
2023-04-12T00:57:13.632Z,943.52
2023-04-12T00:57:25.597Z,943.51
2023-04-12T00:57:36.629Z,943.51
2023-04-12T00:57:48.611Z,943.51
2023-04-12T00:58:00.587Z,943.51
2023-04-12T00:58:11.610Z,943.51
2023-04-12T00:58:23.581Z,943.50
2023-04-12T00:58:35.587Z,943.50
2023-04-12T00:58:46.581Z,943.50
2023-04-12T00:58:57.624Z,943.50
2023-04-12T00:59:08.644Z,943.49
2023-04-12T00:59:20.610Z,943.49
2023-04-12T00:59:31.590Z,943.50
2023-04-12T00:59:42.606Z,943.50
2023-04-12T00:59:53.599Z,943.49
2023-04-12T01:00:05.587Z,943.49
2023-04-12T01:00:16.582Z,943.48
2023-04-12T01:00:27.585Z,943.48
2023-04-12T01:00:38.613Z,943.48
2023-04-12T01:00:49.657Z,943.48
2023-04-12T01:01:00.680Z,943.47
2023-04-12T01:01:12.659Z,943.47
2023-04-12T01:01:23.587Z,943.47
2023-04-12T01:01:34.594Z,943.47
2023-04-12T01:01:45.664Z,943.47
2023-04-12T01:01:57.704Z,943.47
2023-04-12T01:02:08.685Z,943.46
2023-04-12T01:02:19.667Z,943.45
2023-04-12T01:02:30.770Z,943.46
2023-04-12T01:02:41.708Z,943.45
2023-04-12T01:02:53.785Z,943.46
2023-04-12T01:03:04.722Z,943.46
2023-04-12T01:03:16.859Z,943.45
2023-04-12T01:03:28.728Z,943.45
2023-04-12T01:03:39.659Z,943.45
2023-04-12T01:03:50.655Z,943.46
2023-04-12T01:04:02.617Z,943.45
2023-04-12T01:04:13.630Z,943.46
2023-04-12T01:04:25.608Z,943.45
2023-04-12T01:04:36.588Z,943.45
2023-04-12T01:04:47.632Z,943.44
2023-04-12T01:04:59.597Z,943.44
2023-04-12T01:05:10.587Z,943.44
2023-04-12T01:05:21.588Z,943.43
2023-04-12T01:05:32.585Z,943.43
2023-04-12T01:05:43.622Z,943.43
2023-04-12T01:05:54.637Z,943.43
2023-04-12T01:06:06.591Z,943.42
2023-04-12T01:06:17.580Z,943.42
2023-04-12T01:06:29.577Z,943.42
2023-04-12T01:06:40.559Z,943.42
2023-04-12T01:06:51.570Z,943.41
2023-04-12T01:07:02.555Z,943.40
2023-04-12T01:07:13.575Z,943.40
2023-04-12T01:07:24.566Z,943.40
2023-04-12T01:07:35.546Z,943.39
2023-04-12T01:07:46.547Z,943.39
2023-04-12T01:07:57.643Z,943.38
2023-04-12T01:08:09.612Z,943.37
2023-04-12T01:08:21.606Z,943.38
2023-04-12T01:08:33.579Z,943.37
2023-04-12T01:08:44.575Z,943.37
2023-04-12T01:08:55.550Z,943.36
2023-04-12T01:09:06.556Z,943.36
2023-04-12T01:09:17.590Z,943.35
2023-04-12T01:09:28.558Z,943.35
2023-04-12T01:09:39.570Z,943.35
2023-04-12T01:09:50.534Z,943.35
2023-04-12T01:10:01.550Z,943.34
2023-04-12T01:10:12.562Z,943.33
2023-04-12T01:10:23.548Z,943.34
2023-04-12T01:10:34.566Z,943.33
2023-04-12T01:10:45.579Z,943.32
2023-04-12T01:10:56.602Z,943.32
2023-04-12T01:11:07.601Z,943.31
2023-04-12T01:11:18.606Z,943.31
2023-04-12T01:11:29.608Z,943.31
2023-04-12T01:11:41.586Z,943.30
2023-04-12T01:11:52.580Z,943.29
2023-04-12T01:12:03.563Z,943.29
2023-04-12T01:12:14.557Z,943.29
2023-04-12T01:12:25.559Z,943.28
2023-04-12T01:12:36.636Z,943.28
2023-04-12T01:12:48.613Z,943.28
2023-04-12T01:13:00.590Z,943.28
2023-04-12T01:13:11.581Z,943.28
2023-04-12T01:13:22.577Z,943.28
2023-04-12T01:13:33.594Z,943.27
2023-04-12T01:13:44.584Z,943.27
2023-04-12T01:13:55.855Z,943.26
2023-04-12T01:14:06.642Z,943.27
2023-04-12T01:14:18.626Z,943.26
2023-04-12T01:14:30.595Z,943.26
2023-04-12T01:14:41.605Z,943.26
2023-04-12T01:14:53.588Z,943.26
2023-04-12T01:15:04.577Z,943.25
2023-04-12T01:15:15.581Z,943.26
2023-04-12T01:15:26.586Z,943.26
2023-04-12T01:15:37.581Z,943.26
2023-04-12T01:15:48.584Z,943.25
2023-04-12T01:15:59.633Z,943.26
2023-04-12T01:16:10.628Z,943.25
2023-04-12T01:16:22.687Z,943.25
2023-04-12T01:16:34.676Z,943.26
2023-04-12T01:16:45.624Z,943.26
2023-04-12T01:16:57.623Z,943.26
2023-04-12T01:17:09.576Z,943.25
2023-04-12T01:17:20.609Z,943.25
2023-04-12T01:17:31.626Z,943.25
2023-04-12T01:17:42.576Z,943.25
2023-04-12T01:17:53.632Z,943.26
2023-04-12T01:18:04.606Z,943.26
2023-04-12T01:18:15.597Z,943.26
2023-04-12T01:18:26.583Z,943.26
2023-04-12T01:18:37.577Z,943.26
2023-04-12T01:18:49.587Z,943.26
2023-04-12T01:19:00.593Z,943.26
2023-04-12T01:19:11.583Z,943.26
2023-04-12T01:19:22.578Z,943.26
2023-04-12T01:19:33.576Z,943.26
2023-04-12T01:19:44.558Z,943.26
2023-04-12T01:19:55.547Z,943.26
2023-04-12T01:20:06.575Z,943.26
2023-04-12T01:20:17.585Z,943.25
2023-04-12T01:20:28.599Z,943.25
2023-04-12T01:20:39.617Z,943.24
2023-04-12T01:20:50.617Z,943.24
2023-04-12T01:21:02.585Z,943.24
2023-04-12T01:21:13.573Z,943.24
2023-04-12T01:21:24.583Z,943.24
2023-04-12T01:21:35.580Z,943.23
2023-04-12T01:21:46.587Z,943.23
2023-04-12T01:21:58.591Z,943.23
2023-04-12T01:22:09.597Z,943.22
2023-04-12T01:22:20.592Z,943.22
2023-04-12T01:22:31.583Z,943.22
2023-04-12T01:22:42.571Z,943.22
2023-04-12T01:22:53.572Z,943.22
2023-04-12T01:23:04.587Z,943.21
2023-04-12T01:23:15.574Z,943.21
2023-04-12T01:23:26.585Z,943.20
2023-04-12T01:23:38.594Z,943.20
2023-04-12T01:23:50.577Z,943.20
2023-04-12T01:24:01.617Z,943.19
2023-04-12T01:24:13.604Z,943.19
2023-04-12T01:24:24.637Z,943.18
2023-04-12T01:24:36.602Z,943.18
2023-04-12T01:24:47.602Z,943.17
2023-04-12T01:24:58.595Z,943.17
2023-04-12T01:25:10.647Z,943.17
2023-04-12T01:25:22.599Z,943.16
2023-04-12T01:25:33.584Z,943.16
2023-04-12T01:25:44.587Z,943.16
2023-04-12T01:25:55.652Z,943.15
2023-04-12T01:26:07.626Z,943.15
2023-04-12T01:26:19.683Z,943.15
2023-04-12T01:26:30.647Z,943.14
2023-04-12T01:26:41.579Z,943.14
2023-04-12T01:26:52.550Z,943.14
2023-04-12T01:27:03.596Z,943.14
2023-04-12T01:27:14.578Z,943.14
2023-04-12T01:27:25.583Z,943.14
2023-04-12T01:27:36.578Z,943.13
2023-04-12T01:27:47.583Z,943.13
2023-04-12T01:27:58.599Z,943.12
2023-04-12T01:28:09.591Z,943.12
2023-04-12T01:28:21.573Z,943.12
2023-04-12T01:28:32.557Z,943.12
2023-04-12T01:28:43.569Z,943.12
2023-04-12T01:28:54.568Z,943.12
2023-04-12T01:29:05.571Z,943.13
2023-04-12T01:29:16.604Z,943.13
2023-04-12T01:29:27.605Z,943.13
2023-04-12T01:29:38.594Z,943.13
2023-04-12T01:29:49.595Z,943.13
2023-04-12T01:30:00.601Z,943.13
2023-04-12T01:30:11.615Z,943.13
2023-04-12T01:30:23.604Z,943.12
2023-04-12T01:30:34.584Z,943.12
2023-04-12T01:30:45.582Z,943.12
2023-04-12T01:30:56.567Z,943.11
2023-04-12T01:31:07.601Z,943.11
2023-04-12T01:31:18.673Z,943.10
2023-04-12T01:31:30.583Z,943.10
2023-04-12T01:31:41.613Z,943.10
2023-04-12T01:31:52.579Z,943.10
2023-04-12T01:32:03.658Z,943.09
2023-04-12T01:32:14.563Z,943.10
2023-04-12T01:32:25.589Z,943.09
2023-04-12T01:32:37.609Z,943.09
2023-04-12T01:32:49.635Z,943.09
2023-04-12T01:33:00.622Z,943.09
2023-04-12T01:33:12.586Z,943.08
2023-04-12T01:33:24.582Z,943.08
2023-04-12T01:33:35.577Z,943.08
2023-04-12T01:33:46.587Z,943.07
2023-04-12T01:33:57.674Z,943.07
2023-04-12T01:34:08.601Z,943.07
2023-04-12T01:34:19.588Z,943.07
2023-04-12T01:34:30.571Z,943.06
2023-04-12T01:34:41.590Z,943.06
2023-04-12T01:34:52.584Z,943.06
2023-04-12T01:35:03.599Z,943.05
2023-04-12T01:35:14.590Z,943.05
2023-04-12T01:35:25.598Z,943.05
2023-04-12T01:35:36.655Z,943.04
2023-04-12T01:35:48.640Z,943.04
2023-04-12T01:36:00.626Z,943.04
2023-04-12T01:36:12.612Z,943.03
2023-04-12T01:36:24.615Z,943.03
2023-04-12T01:36:35.612Z,943.02
2023-04-12T01:36:46.605Z,943.01
2023-04-12T01:36:57.602Z,943.01
2023-04-12T01:37:08.587Z,943.00
2023-04-12T01:37:19.613Z,943.00
2023-04-12T01:37:30.623Z,943.00
2023-04-12T01:37:42.603Z,942.99
2023-04-12T01:37:53.612Z,942.99
2023-04-12T01:38:04.605Z,942.98
2023-04-12T01:38:15.598Z,942.97
2023-04-12T01:38:26.613Z,942.96
2023-04-12T01:38:37.604Z,942.96
2023-04-12T01:38:48.585Z,942.95
2023-04-12T01:38:59.586Z,942.94
2023-04-12T01:39:10.580Z,942.93
2023-04-12T01:39:21.604Z,942.92
2023-04-12T01:39:33.610Z,942.92
2023-04-12T01:39:44.604Z,942.91
2023-04-12T01:39:55.609Z,942.91
2023-04-12T01:40:07.590Z,942.90
2023-04-12T01:40:18.604Z,942.89
2023-04-12T01:40:29.590Z,942.88
2023-04-12T01:40:40.598Z,942.88
2023-04-12T01:40:51.610Z,942.88
2023-04-12T01:41:03.567Z,942.88
2023-04-12T01:41:14.604Z,942.88
2023-04-12T01:41:26.598Z,942.88
2023-04-12T01:41:37.589Z,942.88
2023-04-12T01:41:48.591Z,942.87
2023-04-12T01:41:59.617Z,942.87
2023-04-12T01:42:11.605Z,942.87
2023-04-12T01:42:23.613Z,942.87
2023-04-12T01:42:34.605Z,942.88
2023-04-12T01:42:45.600Z,942.88
2023-04-12T01:42:56.600Z,942.88
2023-04-12T01:43:08.592Z,942.88
2023-04-12T01:43:19.591Z,942.88
2023-04-12T01:43:30.581Z,942.88
2023-04-12T01:43:41.581Z,942.88
2023-04-12T01:43:52.619Z,942.88
2023-04-12T01:44:04.580Z,942.88
2023-04-12T01:44:15.587Z,942.88
2023-04-12T01:44:26.589Z,942.87
2023-04-12T01:44:37.584Z,942.87
2023-04-12T01:44:48.584Z,942.87
2023-04-12T01:44:59.603Z,942.86
2023-04-12T01:45:10.621Z,942.87
2023-04-12T01:45:22.678Z,942.87
2023-04-12T01:45:34.645Z,942.87
2023-04-12T01:45:45.622Z,942.87
2023-04-12T01:45:56.604Z,942.86
2023-04-12T01:46:07.625Z,942.86
2023-04-12T01:46:19.706Z,942.86
2023-04-12T01:46:31.593Z,942.85
2023-04-12T01:46:42.593Z,942.85
2023-04-12T01:46:53.587Z,942.85
2023-04-12T01:47:04.587Z,942.84
2023-04-12T01:47:15.594Z,942.84
2023-04-12T01:47:26.636Z,942.84
2023-04-12T01:47:38.649Z,942.83
2023-04-12T01:47:49.631Z,942.83
2023-04-12T01:48:00.690Z,942.82
2023-04-12T01:48:12.622Z,942.82
2023-04-12T01:48:24.612Z,942.82
2023-04-12T01:48:35.623Z,942.81
2023-04-12T01:48:47.600Z,942.81
2023-04-12T01:48:58.604Z,942.82
2023-04-12T01:49:09.596Z,942.82
2023-04-12T01:49:20.609Z,942.82
2023-04-12T01:49:32.579Z,942.82
2023-04-12T01:49:43.595Z,942.82
2023-04-12T01:49:54.573Z,942.82
2023-04-12T01:50:05.619Z,942.82
2023-04-12T01:50:16.657Z,942.83
2023-04-12T01:50:28.622Z,942.83
2023-04-12T01:50:40.593Z,942.83
2023-04-12T01:50:51.587Z,942.83
2023-04-12T01:51:02.603Z,942.83
2023-04-12T01:51:13.601Z,942.84
2023-04-12T01:51:25.583Z,942.84
2023-04-12T01:51:36.585Z,942.84
2023-04-12T01:51:47.569Z,942.84
2023-04-12T01:51:58.606Z,942.84
2023-04-12T01:52:09.630Z,942.84
2023-04-12T01:52:21.662Z,942.84
2023-04-12T01:52:33.641Z,942.84
2023-04-12T01:52:45.620Z,942.83
2023-04-12T01:52:57.646Z,942.83
2023-04-12T01:53:09.600Z,942.82
2023-04-12T01:53:20.586Z,942.82
2023-04-12T01:53:31.593Z,942.82
2023-04-12T01:53:42.594Z,942.81
2023-04-12T01:53:54.850Z,942.81
2023-04-12T01:54:06.618Z,942.80
2023-04-12T01:54:18.602Z,942.80
2023-04-12T01:54:29.587Z,942.80
2023-04-12T01:54:40.570Z,942.80
2023-04-12T01:54:51.596Z,942.79
2023-04-12T01:55:02.610Z,942.79
2023-04-12T01:55:14.601Z,942.79
2023-04-12T01:55:25.591Z,942.79
2023-04-12T01:55:36.577Z,942.79
2023-04-12T01:55:47.574Z,942.78
2023-04-12T01:55:58.561Z,942.79
2023-04-12T01:56:09.553Z,942.79
2023-04-12T01:56:20.663Z,942.79
2023-04-12T01:56:31.562Z,942.80
2023-04-12T01:56:42.555Z,942.80
2023-04-12T01:56:53.560Z,942.81
2023-04-12T01:57:04.551Z,942.81
2023-04-12T01:57:15.558Z,942.82
2023-04-12T01:57:26.554Z,942.82
2023-04-12T01:57:37.573Z,942.81
2023-04-12T01:57:48.570Z,942.81
2023-04-12T01:57:59.565Z,942.81
2023-04-12T01:58:10.594Z,942.81
2023-04-12T01:58:21.606Z,942.81
2023-04-12T01:58:33.566Z,942.81
2023-04-12T01:58:44.564Z,942.81
2023-04-12T01:58:55.591Z,942.81
2023-04-12T01:59:06.595Z,942.81
2023-04-12T01:59:17.590Z,942.80
2023-04-12T01:59:28.593Z,942.80
2023-04-12T01:59:40.613Z,942.80
2023-04-12T01:59:52.602Z,942.80
2023-04-12T02:00:03.630Z,942.79
2023-04-12T02:00:15.580Z,942.78
2023-04-12T02:00:26.577Z,942.78
2023-04-12T02:00:37.588Z,942.77
2023-04-12T02:00:48.652Z,942.77
2023-04-12T02:00:59.689Z,942.77
2023-04-12T02:01:11.610Z,942.76
2023-04-12T02:01:22.649Z,942.75
2023-04-12T02:01:33.671Z,942.75
2023-04-12T02:01:44.710Z,942.74
2023-04-12T02:01:55.684Z,942.74
2023-04-12T02:02:07.705Z,942.73
2023-04-12T02:02:18.686Z,942.72
2023-04-12T02:02:30.746Z,942.72
2023-04-12T02:02:41.766Z,942.72
2023-04-12T02:02:53.808Z,942.71
2023-04-12T02:03:05.845Z,942.71
2023-04-12T02:03:17.736Z,942.70
2023-04-12T02:03:29.680Z,942.70
2023-04-12T02:03:41.752Z,942.69
2023-04-12T02:03:52.758Z,942.68
2023-04-12T02:04:04.844Z,942.67
2023-04-12T02:04:16.633Z,942.67
2023-04-12T02:04:28.595Z,942.66
2023-04-12T02:04:39.589Z,942.66
2023-04-12T02:04:50.610Z,942.66
2023-04-12T02:05:01.658Z,942.66
2023-04-12T02:05:13.600Z,942.65
2023-04-12T02:05:24.596Z,942.65
2023-04-12T02:05:35.600Z,942.65
2023-04-12T02:05:46.605Z,942.65
2023-04-12T02:05:57.617Z,942.65
2023-04-12T02:06:09.624Z,942.65
2023-04-12T02:06:21.624Z,942.65
2023-04-12T02:06:33.615Z,942.65
2023-04-12T02:06:45.578Z,942.65
2023-04-12T02:06:56.593Z,942.64
2023-04-12T02:07:08.587Z,942.64
2023-04-12T02:07:19.579Z,942.64
2023-04-12T02:07:30.569Z,942.63
2023-04-12T02:07:41.581Z,942.62
2023-04-12T02:07:52.606Z,942.60
2023-04-12T02:08:03.589Z,942.60
2023-04-12T02:08:15.603Z,942.59
2023-04-12T02:08:26.604Z,942.59
2023-04-12T02:08:37.614Z,942.60
2023-04-12T02:08:48.577Z,942.59
2023-04-12T02:08:59.593Z,942.59
2023-04-12T02:09:10.596Z,942.58
2023-04-12T02:09:21.596Z,942.58
2023-04-12T02:09:32.600Z,942.58
2023-04-12T02:09:43.582Z,942.58
2023-04-12T02:09:54.570Z,942.58
2023-04-12T02:10:05.577Z,942.58
2023-04-12T02:10:16.576Z,942.57
2023-04-12T02:10:27.574Z,942.57
2023-04-12T02:10:38.571Z,942.57
2023-04-12T02:10:49.639Z,942.56
2023-04-12T02:11:01.615Z,942.56
2023-04-12T02:11:13.589Z,942.57
2023-04-12T02:11:24.587Z,942.57
2023-04-12T02:11:35.592Z,942.56
2023-04-12T02:11:46.610Z,942.56
2023-04-12T02:11:57.617Z,942.55
2023-04-12T02:12:08.595Z,942.54
2023-04-12T02:12:19.599Z,942.54
2023-04-12T02:12:30.594Z,942.54
2023-04-12T02:12:41.591Z,942.54
2023-04-12T02:12:52.589Z,942.54
2023-04-12T02:13:03.613Z,942.53
2023-04-12T02:13:14.613Z,942.53
2023-04-12T02:13:26.614Z,942.52
2023-04-12T02:13:38.582Z,942.52
2023-04-12T02:13:49.586Z,942.52
2023-04-12T02:14:00.564Z,942.51
2023-04-12T02:14:11.600Z,942.51
2023-04-12T02:14:22.599Z,942.50
2023-04-12T02:14:34.595Z,942.49
2023-04-12T02:14:46.582Z,942.49
2023-04-12T02:14:57.629Z,942.48
2023-04-12T02:15:08.606Z,942.48
2023-04-12T02:15:20.614Z,942.47
2023-04-12T02:15:31.615Z,942.46
2023-04-12T02:15:42.599Z,942.46
2023-04-12T02:15:53.604Z,942.46
2023-04-12T02:16:04.626Z,942.45
2023-04-12T02:16:16.630Z,942.45
2023-04-12T02:16:28.608Z,942.44
2023-04-12T02:16:39.662Z,942.44
2023-04-12T02:16:50.713Z,942.43
2023-04-12T02:17:01.649Z,942.43
2023-04-12T02:17:13.621Z,942.43
2023-04-12T02:17:24.588Z,942.43
2023-04-12T02:17:35.642Z,942.43
2023-04-12T02:17:46.632Z,942.43
2023-04-12T02:17:58.606Z,942.43
2023-04-12T02:18:10.736Z,942.44
2023-04-12T02:18:21.578Z,942.43
2023-04-12T02:18:32.573Z,942.42
2023-04-12T02:18:43.578Z,942.43
2023-04-12T02:18:54.586Z,942.43
2023-04-12T02:19:05.602Z,942.42
2023-04-12T02:19:16.589Z,942.41
2023-04-12T02:19:27.585Z,942.41
2023-04-12T02:19:39.596Z,942.42
2023-04-12T02:19:50.577Z,942.41
2023-04-12T02:20:01.580Z,942.40
2023-04-12T02:20:12.591Z,942.40
2023-04-12T02:20:23.587Z,942.40